Time;durP1;ratioP1;P1;durP2;ratioP2;P2;SDS_P1;SDS_P2;PMS_P1;PMS_P2;Temp;Humidity;BMP_temperature;BMP_pressure;BME280_temperature;BME280_humidity;BME280_pressure;Samples;Min_cycle;Max_cycle;Signal;HPM_P1;HPM_P2
2023/04/16 00:02:23;;;;;;;7.10;5.37;;;;;;;;;;5108889;28;20200;-78
2023/04/16 00:04:48;;;;;;;10.83;4.73;;;;;;;;;;5091680;27;20176;-78
2023/04/16 00:07:13;;;;;;;5.77;4.90;;;;;;;;;;5108041;27;20181;-78
2023/04/16 00:09:38;;;;;;;4.60;4.17;;;;;;;;;;5095661;28;20238;-78
2023/04/16 00:12:04;;;;;;;7.67;4.37;;;;;;;;;;5083491;28;20277;-78
2023/04/16 00:14:30;;;;;;;4.77;4.33;;;;;;;;;;5089317;28;20259;-78
2023/04/16 00:16:55;;;;;;;7.73;5.30;;;;;;;;;;5104527;27;20204;-78
2023/04/16 00:19:20;;;;;;;4.53;3.83;;;;;;;;;;5090704;28;20259;-78
2023/04/16 00:21:46;;;;;;;6.20;5.60;;;;;;;;;;5082629;28;20173;-78
2023/04/16 00:24:11;;;;;;;4.17;3.30;;;;;;;;;;5085993;28;20182;-78
2023/04/16 00:26:36;;;;;;;6.63;4.90;;;;;;;;;;5094964;27;20257;-78
2023/04/16 00:29:01;;;;;;;5.70;4.93;;;;;;;;;;5092393;28;20180;-78
2023/04/16 00:31:27;;;;;;;2.47;2.00;;;;;;;;;;5092420;27;20179;-78
2023/04/16 00:33:53;;;;;;;5.13;4.40;;;;;;;;;;5091130;28;20179;-78
2023/04/16 00:36:18;;;;;;;6.43;5.33;;;;;;;;;;5091022;27;20207;-78
2023/04/16 00:38:43;;;;;;;4.33;3.93;;;;;;;;;;5092169;28;20181;-78
2023/04/16 00:41:08;;;;;;;4.20;3.80;;;;;;;;;;5089765;28;20267;-78
2023/04/16 00:43:33;;;;;;;4.07;3.13;;;;;;;;;;5105196;28;20241;-78
2023/04/16 00:45:59;;;;;;;5.30;4.80;;;;;;;;;;5092078;28;20176;-78
2023/04/16 00:48:26;;;;;;;5.73;4.87;;;;;;;;;;5091934;28;20187;-78
2023/04/16 00:50:54;;;;;;;4.20;3.37;;;;;;;;;;5091589;28;20276;-78
2023/04/16 00:53:19;;;;;;;4.97;3.80;;;;;;;;;;5090772;28;20187;-78
2023/04/16 00:55:44;;;;;;;5.17;4.17;;;;;;;;;;5090539;28;20335;-78
2023/04/16 00:58:10;;;;;;;3.90;3.50;;;;;;;;;;5091971;28;20179;-78
2023/04/16 01:00:35;;;;;;;3.70;3.40;;;;;;;;;;5088766;28;20255;-78
2023/04/16 01:03:00;;;;;;;3.77;2.47;;;;;;;;;;5090352;27;20226;-78
2023/04/16 01:05:25;;;;;;;3.57;2.57;;;;;;;;;;5108074;27;20217;-78
2023/04/16 01:07:51;;;;;;;2.40;2.20;;;;;;;;;;5095066;27;20171;-78
2023/04/16 01:10:16;;;;;;;2.73;2.37;;;;;;;;;;5091015;28;20209;-78
2023/04/16 01:12:41;;;;;;;2.03;1.83;;;;;;;;;;5076967;28;20225;-78
2023/04/16 01:15:07;;;;;;;3.23;2.93;;;;;;;;;;5083156;28;20203;-78
2023/04/16 01:17:32;;;;;;;2.27;2.07;;;;;;;;;;5063363;28;20185;-78
2023/04/16 01:20:00;;;;;;;2.53;2.33;;;;;;;;;;5067172;28;20232;-78
2023/04/16 01:22:28;;;;;;;3.37;2.90;;;;;;;;;;5073664;28;20249;-78
2023/04/16 01:24:53;;;;;;;3.00;2.47;;;;;;;;;;5078681;28;20230;-78
2023/04/16 01:27:19;;;;;;;3.30;3.00;;;;;;;;;;5070739;28;20215;-78
2023/04/16 01:29:44;;;;;;;2.97;2.13;;;;;;;;;;5093380;28;20181;-78
2023/04/16 01:32:10;;;;;;;2.27;2.07;;;;;;;;;;5070863;28;20180;-78
2023/04/16 01:34:35;;;;;;;2.83;2.63;;;;;;;;;;5074503;28;20231;-78
2023/04/16 01:37:02;;;;;;;2.27;1.83;;;;;;;;;;5069164;28;20188;-78
2023/04/16 01:39:27;;;;;;;1.63;1.47;;;;;;;;;;5090117;28;20243;-78
2023/04/16 01:41:53;;;;;;;3.30;2.43;;;;;;;;;;5071944;28;20231;-78
2023/04/16 01:44:18;;;;;;;2.70;2.30;;;;;;;;;;5069365;28;20208;-78
2023/04/16 01:46:44;;;;;;;3.03;2.23;;;;;;;;;;5069493;28;20175;-78
2023/04/16 01:49:09;;;;;;;2.00;1.80;;;;;;;;;;5065420;28;20187;-78
2023/04/16 01:51:34;;;;;;;1.63;1.37;;;;;;;;;;5064050;28;20225;-78
2023/04/16 01:54:00;;;;;;;1.70;1.60;;;;;;;;;;5074869;28;20239;-78
2023/04/16 01:56:25;;;;;;;2.90;2.27;;;;;;;;;;5083464;28;20193;-78
2023/04/16 01:58:51;;;;;;;1.87;1.67;;;;;;;;;;5087365;28;20275;-78
2023/04/16 02:01:16;;;;;;;3.03;2.70;;;;;;;;;;5067080;28;20171;-78
2023/04/16 02:03:41;;;;;;;2.70;2.50;;;;;;;;;;5072208;28;20219;-78
2023/04/16 02:06:06;;;;;;;4.63;3.00;;;;;;;;;;5094086;28;20169;-78
2023/04/16 02:08:32;;;;;;;2.37;2.17;;;;;;;;;;5088412;28;20186;-78
2023/04/16 02:10:58;;;;;;;5.70;2.90;;;;;;;;;;5060585;28;20185;-78
2023/04/16 02:13:24;;;;;;;4.83;4.30;;;;;;;;;;5069070;28;20264;-78
2023/04/16 02:15:50;;;;;;;5.20;4.60;;;;;;;;;;5075143;28;20214;-78
2023/04/16 02:18:16;;;;;;;5.03;3.67;;;;;;;;;;5091818;28;20180;-78
2023/04/16 02:20:42;;;;;;;5.37;3.97;;;;;;;;;;5068003;28;20168;-78
2023/04/16 02:23:07;;;;;;;3.77;3.33;;;;;;;;;;5065603;28;20183;-78
2023/04/16 02:25:36;;;;;;;3.77;3.17;;;;;;;;;;5070538;28;20186;-78
2023/04/16 02:28:02;;;;;;;3.50;3.07;;;;;;;;;;5071218;28;20180;-78
2023/04/16 02:30:27;;;;;;;4.70;4.20;;;;;;;;;;5069774;28;20215;-78
2023/04/16 02:32:52;;;;;;;2.63;1.97;;;;;;;;;;5070607;28;20196;-78
2023/04/16 02:35:17;;;;;;;5.00;4.03;;;;;;;;;;5069274;28;20226;-78
2023/04/16 02:37:42;;;;;;;5.43;4.00;;;;;;;;;;5068889;28;20180;-78
2023/04/16 02:40:08;;;;;;;3.33;2.50;;;;;;;;;;5068472;28;20275;-78
2023/04/16 02:42:33;;;;;;;4.07;3.67;;;;;;;;;;5074274;28;20177;-78
2023/04/16 02:44:59;;;;;;;5.10;4.13;;;;;;;;;;5066687;28;20188;-78
2023/04/16 02:47:24;;;;;;;4.83;3.87;;;;;;;;;;5072855;28;20198;-78
2023/04/16 02:49:49;;;;;;;5.20;4.57;;;;;;;;;;5077431;28;20215;-78
2023/04/16 02:52:14;;;;;;;7.57;5.33;;;;;;;;;;5069967;28;20360;-78
2023/04/16 02:54:40;;;;;;;6.00;3.53;;;;;;;;;;5085550;28;20193;-78
2023/04/16 02:57:05;;;;;;;6.13;5.17;;;;;;;;;;5072022;28;20172;-77
2023/04/16 02:59:30;;;;;;;14.70;6.93;;;;;;;;;;5068870;28;20180;-78
2023/04/16 03:01:55;;;;;;;27.27;7.80;;;;;;;;;;5096263;28;20281;-78
2023/04/16 03:04:21;;;;;;;12.87;7.07;;;;;;;;;;5073360;28;20177;-78
2023/04/16 03:06:46;;;;;;;7.23;5.20;;;;;;;;;;5070847;28;20210;-78
2023/04/16 03:09:14;;;;;;;7.70;6.20;;;;;;;;;;5072863;28;20191;-78
2023/04/16 03:11:39;;;;;;;8.00;4.57;;;;;;;;;;5096531;27;20231;-78
2023/04/16 03:14:04;;;;;;;10.13;5.33;;;;;;;;;;5092221;28;20168;-78
2023/04/16 03:16:30;;;;;;;12.73;6.07;;;;;;;;;;5089055;27;20208;-78
2023/04/16 03:18:55;;;;;;;6.60;4.50;;;;;;;;;;5092898;28;20180;-78
2023/04/16 03:21:20;;;;;;;6.40;4.33;;;;;;;;;;5094230;28;20186;-78
2023/04/16 03:23:46;;;;;;;6.63;4.87;;;;;;;;;;5091724;28;20259;-78
2023/04/16 03:26:11;;;;;;;9.80;6.73;;;;;;;;;;5101242;27;20176;-78
2023/04/16 03:28:36;;;;;;;8.40;6.33;;;;;;;;;;5092805;28;20240;-78
2023/04/16 03:31:02;;;;;;;6.20;4.40;;;;;;;;;;5107594;27;20236;-77
2023/04/16 03:33:27;;;;;;;7.27;5.73;;;;;;;;;;5094167;28;20176;-78
2023/04/16 03:35:56;;;;;;;8.63;6.47;;;;;;;;;;5092549;27;20205;-78
2023/04/16 03:38:22;;;;;;;7.43;5.70;;;;;;;;;;5096228;28;20187;-78
2023/04/16 03:40:47;;;;;;;7.40;6.13;;;;;;;;;;5092396;27;20182;-78
2023/04/16 03:43:12;;;;;;;7.03;5.17;;;;;;;;;;5088684;28;20172;-78
2023/04/16 03:45:42;;;;;;;4.37;3.60;;;;;;;;;;5101440;27;20183;-78
2023/04/16 03:48:07;;;;;;;6.83;5.80;;;;;;;;;;5105607;27;20233;-78
2023/04/16 03:50:32;;;;;;;5.60;4.37;;;;;;;;;;5108823;28;20186;-78
2023/04/16 03:52:58;;;;;;;3.73;3.23;;;;;;;;;;5109426;28;20233;-78
2023/04/16 03:55:23;;;;;;;7.67;6.27;;;;;;;;;;5109041;28;20196;-78
2023/04/16 03:57:48;;;;;;;6.87;5.43;;;;;;;;;;5096744;27;20183;-78
2023/04/16 04:00:13;;;;;;;3.77;3.13;;;;;;;;;;5091630;28;20180;-78
2023/04/16 04:02:39;;;;;;;5.90;4.90;;;;;;;;;;5094945;27;20204;-78
2023/04/16 04:05:04;;;;;;;5.30;4.13;;;;;;;;;;5090919;27;20180;-78
2023/04/16 04:07:29;;;;;;;6.67;4.43;;;;;;;;;;5087770;28;20217;-78
2023/04/16 04:09:54;;;;;;;3.20;2.77;;;;;;;;;;5090664;27;20184;-78
2023/04/16 04:12:20;;;;;;;6.17;4.50;;;;;;;;;;5089321;28;20320;-78
2023/04/16 04:14:45;;;;;;;4.37;3.27;;;;;;;;;;5095066;28;20203;-78
2023/04/16 04:17:10;;;;;;;4.73;4.27;;;;;;;;;;5075104;28;20176;-78
2023/04/16 04:19:35;;;;;;;5.93;4.00;;;;;;;;;;5073349;28;20205;-78
2023/04/16 04:22:00;;;;;;;4.93;3.63;;;;;;;;;;5069821;28;20193;-78
2023/04/16 04:24:26;;;;;;;9.13;6.83;;;;;;;;;;5064922;28;20185;-78
2023/04/16 04:26:51;;;;;;;9.70;5.60;;;;;;;;;;5079070;28;20175;-78
2023/04/16 04:29:16;;;;;;;8.60;5.67;;;;;;;;;;5074430;28;20215;-78
2023/04/16 04:31:41;;;;;;;11.33;6.67;;;;;;;;;;5073169;28;20233;-78
2023/04/16 04:34:06;;;;;;;10.13;6.27;;;;;;;;;;5068368;28;20177;-78
2023/04/16 04:36:32;;;;;;;38.97;9.07;;;;;;;;;;5092342;28;20408;-78
2023/04/16 04:38:57;;;;;;;41.27;7.83;;;;;;;;;;5071831;28;20244;-78
2023/04/16 04:41:23;;;;;;;30.40;7.13;;;;;;;;;;5085314;28;20176;-78
2023/04/16 04:43:48;;;;;;;5.43;3.93;;;;;;;;;;5076419;28;20179;-77
2023/04/16 04:46:13;;;;;;;5.97;3.43;;;;;;;;;;5081762;28;20262;-78
2023/04/16 04:48:38;;;;;;;10.67;5.20;;;;;;;;;;5070597;28;20266;-78
2023/04/16 04:51:04;;;;;;;13.27;5.33;;;;;;;;;;5086463;28;20248;-78
2023/04/16 04:53:29;;;;;;;50.10;9.40;;;;;;;;;;5070653;28;20212;-78
2023/04/16 04:55:54;;;;;;;16.90;5.93;;;;;;;;;;5067208;28;20206;-78
2023/04/16 04:58:19;;;;;;;50.23;12.00;;;;;;;;;;5069524;28;20185;-78
2023/04/16 05:00:45;;;;;;;49.03;9.40;;;;;;;;;;5073468;28;20222;-78
2023/04/16 05:03:11;;;;;;;16.73;6.07;;;;;;;;;;5070789;28;20207;-78
2023/04/16 05:05:36;;;;;;;8.77;3.90;;;;;;;;;;5073098;28;20191;-78
2023/04/16 05:08:01;;;;;;;39.00;8.63;;;;;;;;;;5072032;28;20179;-78
2023/04/16 05:10:26;;;;;;;15.30;5.50;;;;;;;;;;5067778;28;20180;-78
2023/04/16 05:12:52;;;;;;;20.73;7.57;;;;;;;;;;5085798;27;20251;-78
2023/04/16 05:15:17;;;;;;;41.73;8.60;;;;;;;;;;5089427;28;20242;-78
2023/04/16 05:17:42;;;;;;;12.57;6.70;;;;;;;;;;5095399;28;20209;-78
2023/04/16 05:20:08;;;;;;;39.13;8.43;;;;;;;;;;5106702;27;20171;-78
2023/04/16 05:22:33;;;;;;;23.63;7.77;;;;;;;;;;5086892;28;20171;-78
2023/04/16 05:24:58;;;;;;;17.30;7.50;;;;;;;;;;5107073;27;20225;-78
2023/04/16 05:27:24;;;;;;;31.73;8.03;;;;;;;;;;5100267;28;20186;-78
2023/04/16 05:29:49;;;;;;;15.23;5.17;;;;;;;;;;5095068;27;20246;-78
2023/04/16 05:32:14;;;;;;;49.57;8.93;;;;;;;;;;5090648;28;20217;-78
2023/04/16 05:34:40;;;;;;;62.30;9.87;;;;;;;;;;5091258;28;20215;-78
2023/04/16 05:37:05;;;;;;;23.43;5.93;;;;;;;;;;5087407;27;20289;-78
2023/04/16 05:39:30;;;;;;;20.40;6.53;;;;;;;;;;5091323;28;20204;-78
2023/04/16 05:41:55;;;;;;;34.83;7.03;;;;;;;;;;5092104;28;20177;-78
2023/04/16 05:44:20;;;;;;;82.63;11.97;;;;;;;;;;5089566;28;20174;-78
2023/04/16 05:46:46;;;;;;;58.97;9.57;;;;;;;;;;5088615;27;20194;-78
2023/04/16 05:49:11;;;;;;;209.20;20.10;;;;;;;;;;5086485;28;20186;-78
2023/04/16 05:51:36;;;;;;;29.73;9.17;;;;;;;;;;5087039;28;20192;-78
2023/04/16 05:54:01;;;;;;;71.97;11.10;;;;;;;;;;5095077;28;20179;-78
2023/04/16 05:56:27;;;;;;;68.50;10.23;;;;;;;;;;5105085;28;20241;-78
2023/04/16 05:58:52;;;;;;;20.13;4.67;;;;;;;;;;5086091;28;20167;-78
2023/04/16 06:01:17;;;;;;;97.90;12.17;;;;;;;;;;5090085;28;20179;-78
2023/04/16 06:03:43;;;;;;;80.57;10.33;;;;;;;;;;5105760;28;20190;-78
2023/04/16 06:06:09;;;;;;;232.13;19.33;;;;;;;;;;5096398;28;20183;-78
2023/04/16 06:08:34;;;;;;;201.10;18.17;;;;;;;;;;5096188;28;20254;-78
2023/04/16 06:10:59;;;;;;;69.73;8.83;;;;;;;;;;5097896;28;20218;-78
2023/04/16 06:13:24;;;;;;;226.83;20.23;;;;;;;;;;5069690;28;20195;-77
2023/04/16 06:15:50;;;;;;;163.87;15.80;;;;;;;;;;5081115;28;20247;-78
2023/04/16 06:18:15;;;;;;;27.90;7.60;;;;;;;;;;5094503;28;20179;-78
2023/04/16 06:20:40;;;;;;;72.13;11.17;;;;;;;;;;5083875;28;20184;-78
2023/04/16 06:23:05;;;;;;;95.07;12.10;;;;;;;;;;5075877;28;20165;-78
2023/04/16 06:25:30;;;;;;;185.10;17.33;;;;;;;;;;5068041;28;20232;-78
2023/04/16 06:27:55;;;;;;;164.73;19.57;;;;;;;;;;5072031;28;20170;-78
2023/04/16 06:30:21;;;;;;;117.93;14.33;;;;;;;;;;5068254;28;20269;-78
2023/04/16 06:32:46;;;;;;;135.83;14.57;;;;;;;;;;5076794;28;20261;-78
2023/04/16 06:35:12;;;;;;;247.47;26.63;;;;;;;;;;5070406;28;20208;-78
2023/04/16 06:37:37;;;;;;;322.13;29.97;;;;;;;;;;5071697;28;20177;-78
2023/04/16 06:40:02;;;;;;;197.50;19.03;;;;;;;;;;5073151;28;20215;-78
2023/04/16 06:42:28;;;;;;;193.13;20.57;;;;;;;;;;5073075;28;20184;-78
2023/04/16 06:44:53;;;;;;;94.17;11.83;;;;;;;;;;5071120;28;20187;-78
2023/04/16 06:47:18;;;;;;;96.23;13.67;;;;;;;;;;5065061;28;20270;-78
2023/04/16 06:49:43;;;;;;;65.50;9.87;;;;;;;;;;5083201;28;20188;-78
2023/04/16 06:52:09;;;;;;;32.27;9.43;;;;;;;;;;5072837;28;20195;-78
2023/04/16 06:54:34;;;;;;;52.60;9.30;;;;;;;;;;5076305;28;20183;-78
2023/04/16 06:57:00;;;;;;;102.37;14.47;;;;;;;;;;5077449;28;20211;-78
2023/04/16 06:59:25;;;;;;;19.77;5.47;;;;;;;;;;5066562;28;20181;-78
2023/04/16 07:01:50;;;;;;;143.73;16.73;;;;;;;;;;5089097;28;20203;-78
2023/04/16 07:04:16;;;;;;;180.47;20.23;;;;;;;;;;5069573;28;20176;-78
2023/04/16 07:06:41;;;;;;;47.13;9.43;;;;;;;;;;5069626;28;20187;-78
2023/04/16 07:09:06;;;;;;;138.03;15.93;;;;;;;;;;5066641;28;20189;-78
2023/04/16 07:11:33;;;;;;;174.10;18.77;;;;;;;;;;5082730;28;20230;-78
2023/04/16 07:13:58;;;;;;;109.33;13.73;;;;;;;;;;5092739;28;20210;-78
2023/04/16 07:16:23;;;;;;;85.73;11.33;;;;;;;;;;5076936;28;20255;-78
2023/04/16 07:18:48;;;;;;;255.03;25.17;;;;;;;;;;5090056;28;20236;-78
2023/04/16 07:21:13;;;;;;;103.33;12.40;;;;;;;;;;5077218;28;20178;-78
2023/04/16 07:23:39;;;;;;;134.13;15.80;;;;;;;;;;5093105;28;20181;-78
2023/04/16 07:26:04;;;;;;;126.73;17.77;;;;;;;;;;5067107;28;20183;-78
2023/04/16 07:28:30;;;;;;;23.67;5.93;;;;;;;;;;5072275;28;20192;-78
2023/04/16 07:30:55;;;;;;;147.83;18.87;;;;;;;;;;5074025;28;20171;-78
2023/04/16 07:33:20;;;;;;;53.80;9.23;;;;;;;;;;5070384;28;20955;-78
2023/04/16 07:35:46;;;;;;;78.43;13.93;;;;;;;;;;5079347;28;20286;-78
2023/04/16 07:38:11;;;;;;;32.63;10.20;;;;;;;;;;5074543;28;20175;-78
2023/04/16 07:40:36;;;;;;;99.90;14.50;;;;;;;;;;5073486;28;20192;-78
2023/04/16 07:43:01;;;;;;;44.90;12.17;;;;;;;;;;5072893;28;20191;-78
2023/04/16 07:45:27;;;;;;;76.13;13.23;;;;;;;;;;5067124;28;20190;-78
2023/04/16 07:47:52;;;;;;;148.70;18.70;;;;;;;;;;5064939;28;20181;-78
2023/04/16 07:50:18;;;;;;;13.33;7.97;;;;;;;;;;5062317;28;20188;-77
2023/04/16 07:52:44;;;;;;;17.30;8.60;;;;;;;;;;5104892;27;20250;-78
2023/04/16 07:55:09;;;;;;;12.60;8.90;;;;;;;;;;5066319;28;20200;-78
2023/04/16 07:57:34;;;;;;;13.70;7.83;;;;;;;;;;5070155;28;20256;-78
2023/04/16 08:00:05;;;;;;;18.80;7.80;;;;;;;;;;5073493;28;20237;-78
2023/04/16 08:02:31;;;;;;;24.60;9.47;;;;;;;;;;5073770;28;20202;-78
2023/04/16 08:04:56;;;;;;;13.07;9.20;;;;;;;;;;5072610;28;20207;-78
2023/04/16 08:07:22;;;;;;;12.07;8.17;;;;;;;;;;5084354;28;20188;-78
2023/04/16 08:09:48;;;;;;;17.13;11.83;;;;;;;;;;5079790;28;20186;-78
2023/04/16 08:12:13;;;;;;;15.43;10.50;;;;;;;;;;5071809;28;20236;-78
2023/04/16 08:14:40;;;;;;;13.43;8.73;;;;;;;;;;5070530;28;20174;-78
2023/04/16 08:17:05;;;;;;;17.10;10.60;;;;;;;;;;5072231;28;20176;-77
2023/04/16 08:19:30;;;;;;;15.90;10.30;;;;;;;;;;5079129;28;20181;-78
2023/04/16 08:21:55;;;;;;;16.80;9.43;;;;;;;;;;5070700;28;20180;-78
2023/04/16 08:24:21;;;;;;;16.73;10.27;;;;;;;;;;5068822;28;20183;-78
2023/04/16 08:26:46;;;;;;;16.13;10.83;;;;;;;;;;5078659;28;20209;-78
2023/04/16 08:29:11;;;;;;;16.90;11.23;;;;;;;;;;5074114;28;20230;-78
2023/04/16 08:31:37;;;;;;;16.80;9.87;;;;;;;;;;5080093;28;20189;-78
2023/04/16 08:34:02;;;;;;;8.63;6.20;;;;;;;;;;5088703;28;20171;-78
2023/04/16 08:36:28;;;;;;;18.17;12.07;;;;;;;;;;5089097;28;20204;-78
2023/04/16 08:38:53;;;;;;;14.37;10.17;;;;;;;;;;5067031;28;20202;-78
2023/04/16 08:41:20;;;;;;;12.77;8.00;;;;;;;;;;5073788;28;20188;-78
2023/04/16 08:43:47;;;;;;;10.77;7.90;;;;;;;;;;5069382;28;20168;-78
2023/04/16 08:46:14;;;;;;;20.13;13.47;;;;;;;;;;5063595;28;20183;-78
2023/04/16 08:48:40;;;;;;;34.67;19.07;;;;;;;;;;5070295;28;20251;-78
2023/04/16 08:51:08;;;;;;;28.57;16.83;;;;;;;;;;5072833;28;20267;-78
2023/04/16 08:53:47;;;;;;;20.50;13.87;;;;;;;;;;5068988;28;20183;-78
2023/04/16 08:56:13;;;;;;;15.73;10.13;;;;;;;;;;5063672;28;20207;-78
2023/04/16 08:58:39;;;;;;;20.37;15.03;;;;;;;;;;5088048;28;20229;-78
2023/04/16 09:01:04;;;;;;;20.23;13.53;;;;;;;;;;5071030;28;20172;-78
2023/04/16 09:03:30;;;;;;;13.13;9.50;;;;;;;;;;5088788;28;20286;-78
2023/04/16 09:05:56;;;;;;;20.10;11.73;;;;;;;;;;5059906;28;20216;-78
2023/04/16 09:08:21;;;;;;;10.67;7.93;;;;;;;;;;5067958;28;20245;-78
2023/04/16 09:10:47;;;;;;;14.73;10.30;;;;;;;;;;5071886;28;20191;-78
2023/04/16 09:13:15;;;;;;;17.20;11.57;;;;;;;;;;5073755;28;20221;-78
2023/04/16 09:15:41;;;;;;;19.73;12.83;;;;;;;;;;5070119;28;20206;-78
2023/04/16 09:18:07;;;;;;;17.20;10.87;;;;;;;;;;5074153;28;20264;-78
2023/04/16 09:20:33;;;;;;;15.17;8.50;;;;;;;;;;5072980;28;20204;-78
2023/04/16 09:22:58;;;;;;;28.70;11.70;;;;;;;;;;5088377;28;20180;-78
2023/04/16 09:25:23;;;;;;;21.23;12.70;;;;;;;;;;5070470;28;20185;-78
2023/04/16 09:27:49;;;;;;;15.27;7.50;;;;;;;;;;5077869;28;20264;-78
2023/04/16 09:30:22;;;;;;;35.53;15.83;;;;;;;;;;5076080;28;20177;-78
2023/04/16 09:32:48;;;;;;;11.87;9.47;;;;;;;;;;5070434;28;20179;-78
2023/04/16 09:35:14;;;;;;;17.37;9.73;;;;;;;;;;5085097;28;20268;-78
2023/04/16 09:37:39;;;;;;;15.97;9.20;;;;;;;;;;5077271;28;20182;-78
2023/04/16 09:40:05;;;;;;;22.30;13.43;;;;;;;;;;5066244;28;20195;-78
2023/04/16 09:42:31;;;;;;;22.23;13.77;;;;;;;;;;5067204;28;20181;-78
2023/04/16 09:44:57;;;;;;;19.13;10.70;;;;;;;;;;5069005;28;20202;-78
2023/04/16 09:47:24;;;;;;;18.20;10.47;;;;;;;;;;5071397;28;20188;-78
2023/04/16 09:49:49;;;;;;;15.07;9.67;;;;;;;;;;5072311;28;20179;-78
2023/04/16 09:52:16;;;;;;;15.90;9.33;;;;;;;;;;5068125;28;20203;-78
2023/04/16 09:54:47;;;;;;;19.43;11.70;;;;;;;;;;5071971;28;20205;-78
2023/04/16 09:57:13;;;;;;;18.60;13.23;;;;;;;;;;5081899;28;20204;-78
2023/04/16 09:59:38;;;;;;;16.97;11.43;;;;;;;;;;5067074;28;20204;-78
2023/04/16 10:02:06;;;;;;;13.90;10.30;;;;;;;;;;5069380;28;20309;-79
2023/04/16 10:04:43;;;;;;;10.87;7.03;;;;;;;;;;5061531;28;20175;-78
2023/04/16 10:07:09;;;;;;;15.17;9.47;;;;;;;;;;5069633;28;20180;-78
2023/04/16 10:09:38;;;;;;;16.97;10.23;;;;;;;;;;5092636;28;20184;-78
2023/04/16 10:12:03;;;;;;;12.23;7.40;;;;;;;;;;5089227;28;20311;-78
2023/04/16 10:14:29;;;;;;;18.80;13.70;;;;;;;;;;5077473;28;20274;-78
2023/04/16 10:16:54;;;;;;;17.93;11.80;;;;;;;;;;5075385;28;20311;-78
2023/04/16 10:19:20;;;;;;;18.70;11.00;;;;;;;;;;5075055;28;20252;-78
2023/04/16 10:21:45;;;;;;;16.00;9.33;;;;;;;;;;5076844;28;20175;-78
2023/04/16 10:24:11;;;;;;;14.57;9.63;;;;;;;;;;5076595;28;20223;-78
2023/04/16 10:26:37;;;;;;;20.87;14.07;;;;;;;;;;5073045;28;20207;-78
2023/04/16 10:29:03;;;;;;;20.20;13.07;;;;;;;;;;5072873;28;20172;-78
2023/04/16 10:31:29;;;;;;;10.17;7.67;;;;;;;;;;5072288;28;20180;-78
2023/04/16 10:33:55;;;;;;;19.70;12.43;;;;;;;;;;5088184;28;20259;-78
2023/04/16 10:36:25;;;;;;;26.50;12.83;;;;;;;;;;5071424;28;20231;-77
2023/04/16 10:38:53;;;;;;;15.20;11.70;;;;;;;;;;5082151;28;20203;-78
2023/04/16 10:41:19;;;;;;;12.90;7.50;;;;;;;;;;5069653;28;20191;-78
2023/04/16 10:43:45;;;;;;;16.57;11.10;;;;;;;;;;5078486;28;20184;-78
2023/04/16 10:46:20;;;;;;;17.73;10.30;;;;;;;;;;5074975;28;20180;-78
2023/04/16 10:48:47;;;;;;;13.87;9.60;;;;;;;;;;5092592;28;20199;-78
2023/04/16 10:51:26;;;;;;;16.47;9.80;;;;;;;;;;5066159;28;20184;-78
2023/04/16 10:53:53;;;;;;;13.70;9.13;;;;;;;;;;5072671;28;20180;-78
2023/04/16 10:56:22;;;;;;;13.37;9.57;;;;;;;;;;5065880;28;20202;-78
2023/04/16 10:58:47;;;;;;;15.17;10.40;;;;;;;;;;5073102;28;20324;-78
2023/04/16 11:01:13;;;;;;;16.20;10.37;;;;;;;;;;5079221;28;20256;-78
2023/04/16 11:03:42;;;;;;;15.50;10.17;;;;;;;;;;5074662;28;20200;-78
2023/04/16 11:06:11;;;;;;;16.53;11.93;;;;;;;;;;5074026;28;20169;-78
2023/04/16 11:08:37;;;;;;;13.73;9.80;;;;;;;;;;5094470;28;20172;-78
2023/04/16 11:11:04;;;;;;;16.83;12.87;;;;;;;;;;5068149;28;20200;-78
2023/04/16 11:13:29;;;;;;;11.63;7.67;;;;;;;;;;5064825;28;20291;-78
2023/04/16 11:15:56;;;;;;;13.10;9.43;;;;;;;;;;5076256;28;20271;-78
2023/04/16 11:18:21;;;;;;;10.57;6.50;;;;;;;;;;5078105;28;20172;-78
2023/04/16 11:20:47;;;;;;;12.30;9.23;;;;;;;;;;5087604;28;20259;-78
2023/04/16 11:23:12;;;;;;;11.80;9.10;;;;;;;;;;5071444;28;20314;-78
2023/04/16 11:25:37;;;;;;;15.57;10.63;;;;;;;;;;5078411;28;20210;-78
2023/04/16 11:28:02;;;;;;;15.57;8.93;;;;;;;;;;5077185;28;20267;-78
2023/04/16 11:30:29;;;;;;;20.13;11.47;;;;;;;;;;5069662;28;20182;-78
2023/04/16 11:32:55;;;;;;;17.13;11.30;;;;;;;;;;5075099;28;20254;-78
2023/04/16 11:35:20;;;;;;;16.10;9.97;;;;;;;;;;5075279;28;20265;-78
2023/04/16 11:37:47;;;;;;;17.80;11.63;;;;;;;;;;5092636;28;20179;-78
2023/04/16 11:40:12;;;;;;;14.90;9.23;;;;;;;;;;5072634;28;20173;-78
2023/04/16 11:42:39;;;;;;;9.73;6.73;;;;;;;;;;5089123;28;20176;-78
2023/04/16 11:45:05;;;;;;;9.73;6.47;;;;;;;;;;5070192;28;20176;-78
2023/04/16 11:47:30;;;;;;;10.73;8.03;;;;;;;;;;5065004;28;20204;-78
2023/04/16 11:49:56;;;;;;;11.40;7.77;;;;;;;;;;5084063;28;20182;-78
2023/04/16 11:52:26;;;;;;;10.47;8.50;;;;;;;;;;5070287;28;20200;-78
2023/04/16 11:54:51;;;;;;;8.77;6.77;;;;;;;;;;5073236;28;20217;-78
2023/04/16 11:57:22;;;;;;;11.10;6.77;;;;;;;;;;5070373;28;20182;-78
2023/04/16 11:59:48;;;;;;;9.17;6.20;;;;;;;;;;5067270;28;20170;-78
2023/04/16 12:02:13;;;;;;;10.10;5.73;;;;;;;;;;5076351;28;20202;-78
2023/04/16 12:04:38;;;;;;;4.70;3.00;;;;;;;;;;5095722;28;20187;-78
2023/04/16 12:07:11;;;;;;;7.47;5.37;;;;;;;;;;5089524;28;20189;-78
2023/04/16 12:09:37;;;;;;;8.13;5.13;;;;;;;;;;5070641;28;20172;-78
2023/04/16 12:12:03;;;;;;;7.17;5.13;;;;;;;;;;5076820;27;20224;-78
2023/04/16 12:14:28;;;;;;;6.00;4.33;;;;;;;;;;5085079;28;20291;-78
2023/04/16 12:16:53;;;;;;;5.17;3.60;;;;;;;;;;5090668;27;20211;-78
2023/04/16 12:19:19;;;;;;;5.03;4.23;;;;;;;;;;5088562;28;20176;-79
2023/04/16 12:21:45;;;;;;;6.10;5.37;;;;;;;;;;5094449;27;20243;-78
2023/04/16 12:24:12;;;;;;;6.53;4.17;;;;;;;;;;5091894;28;20318;-78
2023/04/16 12:26:45;;;;;;;11.93;4.73;;;;;;;;;;5100119;27;20195;-78
2023/04/16 12:29:18;;;;;;;6.97;3.87;;;;;;;;;;5092534;28;20227;-78
2023/04/16 12:31:43;;;;;;;5.53;4.30;;;;;;;;;;5088190;28;20192;-78
2023/04/16 12:34:09;;;;;;;4.93;4.30;;;;;;;;;;5091780;28;20172;-78
2023/04/16 12:36:34;;;;;;;3.93;3.33;;;;;;;;;;5090339;27;20206;-78
2023/04/16 12:39:00;;;;;;;4.10;3.40;;;;;;;;;;5087987;27;20212;-78
2023/04/16 12:41:25;;;;;;;3.50;2.60;;;;;;;;;;5092077;28;20177;-78
2023/04/16 12:43:50;;;;;;;9.37;4.07;;;;;;;;;;5090889;28;20176;-79
2023/04/16 12:46:16;;;;;;;13.30;4.77;;;;;;;;;;5092137;28;20176;-78
2023/04/16 12:48:42;;;;;;;3.10;2.80;;;;;;;;;;5088279;28;20184;-79
2023/04/16 12:51:07;;;;;;;4.83;3.53;;;;;;;;;;5108325;28;20181;-78
2023/04/16 12:53:33;;;;;;;5.83;4.67;;;;;;;;;;5092891;27;20183;-79
2023/04/16 12:55:58;;;;;;;5.23;4.73;;;;;;;;;;5097095;28;20195;-78
2023/04/16 12:58:23;;;;;;;5.93;4.73;;;;;;;;;;5094576;28;20179;-79
2023/04/16 13:00:49;;;;;;;6.27;5.30;;;;;;;;;;5092483;28;20326;-79
2023/04/16 13:03:14;;;;;;;5.77;4.00;;;;;;;;;;5102765;28;20191;-78
2023/04/16 13:05:40;;;;;;;3.53;2.70;;;;;;;;;;5090018;27;20179;-78
2023/04/16 13:08:05;;;;;;;4.37;3.27;;;;;;;;;;5088463;28;20272;-78
2023/04/16 13:10:30;;;;;;;3.83;2.80;;;;;;;;;;5098498;28;20208;-79
2023/04/16 13:12:56;;;;;;;4.63;3.80;;;;;;;;;;5092907;28;20299;-79
2023/04/16 13:15:21;;;;;;;5.97;4.53;;;;;;;;;;5094339;28;20200;-79
2023/04/16 13:17:48;;;;;;;8.17;5.90;;;;;;;;;;5091420;27;20245;-79
2023/04/16 13:20:13;;;;;;;5.93;4.83;;;;;;;;;;5089419;27;20210;-79
2023/04/16 13:22:38;;;;;;;6.07;4.60;;;;;;;;;;5095798;27;20177;-79
2023/04/16 13:25:04;;;;;;;4.73;3.17;;;;;;;;;;5096998;27;20175;-79
2023/04/16 13:27:30;;;;;;;7.53;5.03;;;;;;;;;;5107478;27;20196;-79
2023/04/16 13:29:56;;;;;;;6.27;4.57;;;;;;;;;;5095623;27;20184;-79
2023/04/16 13:32:21;;;;;;;5.40;4.40;;;;;;;;;;5095469;28;20232;-79
2023/04/16 13:34:46;;;;;;;6.07;5.13;;;;;;;;;;5095343;27;20202;-79
2023/04/16 13:37:11;;;;;;;6.03;4.83;;;;;;;;;;5090594;28;20184;-78
2023/04/16 13:39:37;;;;;;;6.60;3.70;;;;;;;;;;5086861;28;20191;-79
2023/04/16 13:42:02;;;;;;;3.70;3.33;;;;;;;;;;5089674;28;20176;-79
2023/04/16 13:44:27;;;;;;;6.97;4.53;;;;;;;;;;5089820;28;20190;-79
2023/04/16 13:46:53;;;;;;;3.30;3.00;;;;;;;;;;5085570;28;20217;-79
2023/04/16 13:49:18;;;;;;;5.40;4.37;;;;;;;;;;5092684;27;20217;-79
2023/04/16 13:51:43;;;;;;;4.03;2.83;;;;;;;;;;5092179;27;20238;-79
2023/04/16 13:54:08;;;;;;;4.97;4.17;;;;;;;;;;5080152;28;20237;-79
2023/04/16 13:56:34;;;;;;;2.77;2.47;;;;;;;;;;5087247;28;20221;-79
2023/04/16 13:58:59;;;;;;;5.37;4.87;;;;;;;;;;5083939;28;20210;-79
2023/04/16 14:01:25;;;;;;;4.20;3.70;;;;;;;;;;5082804;28;20267;-79
2023/04/16 14:03:50;;;;;;;9.67;4.70;;;;;;;;;;5083185;28;20187;-79
2023/04/16 14:06:16;;;;;;;4.57;3.13;;;;;;;;;;5092177;28;20183;-79
2023/04/16 14:08:42;;;;;;;5.20;4.00;;;;;;;;;;5105813;28;20273;-79
2023/04/16 14:11:08;;;;;;;2.70;2.17;;;;;;;;;;5098698;28;20254;-79
2023/04/16 14:13:33;;;;;;;5.70;4.13;;;;;;;;;;5092546;28;20195;-79
2023/04/16 14:15:58;;;;;;;4.30;3.60;;;;;;;;;;5102632;28;20207;-79
2023/04/16 14:18:23;;;;;;;7.77;5.33;;;;;;;;;;5091591;28;20173;-79
2023/04/16 14:20:49;;;;;;;26.37;5.50;;;;;;;;;;5089676;28;20168;-79
2023/04/16 14:23:14;;;;;;;6.83;4.77;;;;;;;;;;5089536;28;20184;-79